Merrimu, Australia

5:06 AM AEST on April 28, 2017 (GMT +1000)
Darley, Lerderderg River Flat | | Change Station

Elev 361 ft 37.65 °S, 144.45 °E | Updated 28 seconds ago

Mostly Cloudy
Mostly Cloudy
53.6 °F
Feels Like 53.6 °F
N
2.0
Wind Variable Wind from NNW
Gusts 5.0 mph

Today
High -- | Low -- °F
--% Chance of Precip.
Yesterday
High -- | Low -- °F
Precip. -- in
Pressure 30.18 in
Visibility 6.2 miles
Clouds Few 2500 ft
Mostly Cloudy 4000 ft
Dew Point 49 °F
Humidity 83%
Rainfall 0.00 in
Snow Depth Not available.
7:00 AM 5:38 PM
New Moon, 3% visible
METAR YMML 271900Z 30007KT 9999 FEW025 BKN040 12/09 Q1022 NOSIG
Pressure 30.18 in
Visibility 6.2 miles
Clouds Few 2500 ft
Mostly Cloudy 4000 ft
Dew Point 49 °F
Humidity 83%
Rainfall 0.00 in
Snow Depth Not available.
7:00 AM 5:38 PM
New Moon, 3% visible
METAR YMML 271900Z 30007KT 9999 FEW025 BKN040 12/09 Q1022 NOSIG

Get Severe Weather Alerts

Thanks for signing up!

Be on the lookout for a verification email in your inbox.

You'll start receiving the daily forecast at 8 AM.

×

10-Day Weather Forecast

×

Almanac

Astronomy

Apr. 28, 2017 Rise Set
Actual Time
Civil Twilight
Nautical Twilight
Astronomical Twilight
Moon
Length of Visible Light
Length of Day
Tomorrow will be .
, % of the Moon is Illuminated

Today's Extremes

Country Highs Country Lows

Community

WunderPhotos

WunderBlog® & News

Nearby

Air Quality

  Air Quality AQ Index Pollutant
Not available.

Snow Depth

Station Depth Elevation

Earthquake Activity

City Distance Mag. Time & Date
Minimum magnitude displayed is 2.5.

Coastal Water Temperatures

Place Temperature

Stations

Nearby Weather Stations

Station Location Temp. Windchill Dew Point Humidity Wind Precip. Elev Updated Type